createdAt,value
2022-12-04T06:41:38.942Z,11.10
2022-12-04T06:44:07.022Z,11.20
2022-12-04T06:46:34.993Z,11.80
2022-12-04T06:49:03.245Z,9.68
2022-12-04T06:51:36.467Z,12.23
2022-12-04T06:54:05.112Z,12.80
2022-12-04T06:56:33.739Z,11.23
2022-12-04T06:59:04.210Z,10.73
2022-12-04T07:01:34.503Z,11.57
2022-12-04T07:04:04.092Z,10.13
2022-12-04T07:06:33.966Z,11.75
2022-12-04T07:09:04.602Z,10.55
2022-12-04T07:11:32.530Z,9.35
2022-12-04T07:14:00.429Z,11.18
2022-12-04T07:16:31.807Z,11.73
2022-12-04T07:19:03.846Z,9.98
2022-12-04T07:21:32.136Z,11.02
2022-12-04T07:24:01.378Z,11.55
2022-12-04T07:26:30.591Z,10.23
2022-12-04T07:28:59.047Z,10.18
2022-12-04T07:31:29.572Z,10.55
2022-12-04T07:33:58.772Z,9.90
2022-12-04T07:36:27.522Z,9.68
2022-12-04T07:38:55.702Z,10.68
2022-12-04T07:41:24.116Z,10.38
2022-12-04T07:43:52.032Z,9.20
2022-12-04T07:46:22.537Z,9.45
2022-12-04T07:48:51.740Z,10.05
2022-12-04T07:51:20.942Z,9.65
2022-12-04T07:53:50.209Z,9.05
2022-12-04T07:56:18.771Z,10.50
2022-12-04T07:58:47.436Z,10.45
2022-12-04T08:01:17.060Z,9.60
2022-12-04T08:34:15.900Z,10.60
2022-12-04T08:36:43.768Z,9.95
2022-12-04T08:39:11.895Z,11.02
2022-12-04T08:41:39.984Z,9.82
2022-12-04T08:44:08.973Z,9.68
2022-12-04T08:46:36.949Z,10.18
2022-12-04T08:49:04.812Z,10.93
2022-12-04T08:51:34.154Z,9.32
2022-12-04T08:54:04.462Z,9.00
2022-12-04T08:56:33.649Z,9.45
2022-12-04T08:59:02.027Z,8.63
2022-12-04T09:01:30.454Z,8.43
2022-12-04T09:03:58.803Z,8.48
2022-12-04T09:06:26.537Z,9.25
2022-12-04T09:08:56.819Z,7.82
2022-12-04T09:11:26.575Z,7.43
2022-12-04T09:13:54.720Z,8.38
2022-12-04T09:16:24.475Z,8.18
2022-12-04T09:18:53.049Z,7.88
2022-12-04T09:21:22.864Z,7.53
2022-12-04T09:23:51.183Z,8.38
2022-12-04T09:26:26.054Z,9.48
2022-12-04T09:28:54.914Z,8.45
2022-12-04T09:31:23.837Z,8.55
2022-12-04T09:33:51.937Z,9.07
2022-12-04T09:36:20.137Z,8.85
2022-12-04T09:38:49.206Z,9.63
2022-12-04T09:41:47.960Z,10.05
2022-12-04T09:44:21.595Z,7.70
2022-12-04T09:46:54.921Z,8.68
2022-12-04T09:49:27.660Z,8.50
2022-12-04T09:52:00.620Z,8.50
2022-12-04T09:54:32.879Z,8.77
2022-12-04T09:57:08.912Z,8.20
2022-12-04T09:59:38.351Z,8.50
2022-12-04T10:02:28.719Z,7.65
2022-12-04T10:04:56.746Z,7.38
2022-12-04T10:07:28.941Z,6.72
2022-12-04T10:10:03.116Z,8.48
2022-12-04T10:12:46.588Z,8.00
2022-12-04T10:15:26.433Z,7.68
2022-12-04T10:18:06.482Z,9.13
2022-12-04T10:21:00.740Z,8.43
2022-12-04T10:23:38.769Z,8.23
2022-12-04T10:26:14.750Z,9.50
2022-12-04T10:28:53.542Z,8.68
2022-12-04T10:31:24.902Z,8.48
2022-12-04T10:33:56.444Z,8.23
2022-12-04T10:36:29.433Z,8.82
2022-12-04T10:38:59.790Z,9.25
2022-12-04T10:41:33.760Z,8.93
2022-12-04T10:44:03.132Z,8.20
2022-12-04T10:46:33.872Z,7.40
2022-12-04T10:49:05.653Z,7.18
2022-12-04T10:54:18.733Z,8.57
2022-12-04T10:56:54.337Z,8.30
2022-12-04T10:59:23.924Z,7.35
2022-12-04T11:02:03.083Z,8.25
2022-12-04T11:04:35.483Z,8.82
2022-12-04T11:07:05.870Z,8.68
2022-12-04T11:09:34.320Z,8.45
2022-12-04T11:12:08.155Z,8.90
2022-12-04T11:14:38.250Z,9.25
2022-12-04T11:17:07.846Z,9.25
2022-12-04T11:19:36.153Z,8.90
2022-12-04T11:22:14.136Z,9.68
2022-12-04T11:24:43.382Z,11.25
2022-12-04T11:27:20.086Z,9.63
2022-12-04T11:29:50.485Z,11.80
2022-12-04T11:32:22.898Z,10.85
2022-12-04T11:34:52.830Z,8.60
2022-12-04T11:37:25.042Z,9.15
2022-12-04T11:39:55.479Z,9.60
2022-12-04T11:42:25.521Z,9.90
2022-12-04T11:44:56.635Z,9.00
2022-12-04T11:47:27.023Z,8.60
2022-12-04T11:50:00.832Z,6.95
2022-12-04T11:52:39.004Z,8.45
2022-12-04T11:55:15.447Z,8.20
2022-12-04T11:57:50.238Z,8.32
2022-12-04T12:00:21.564Z,7.95
2022-12-04T12:03:09.792Z,7.90
2022-12-04T12:06:01.062Z,7.97
2022-12-04T12:08:43.395Z,7.53
2022-12-04T12:11:26.007Z,9.25
2022-12-04T12:14:04.312Z,6.93
2022-12-04T12:16:50.065Z,8.75
2022-12-04T12:19:36.704Z,8.82
2022-12-04T20:41:38.457Z,7.53
2022-12-04T20:44:08.366Z,8.50
2022-12-04T20:46:39.510Z,8.10
2022-12-04T20:49:18.768Z,7.22
2022-12-04T20:51:49.376Z,6.85
2022-12-04T20:54:20.338Z,6.95
2022-12-04T20:56:50.459Z,7.63
2022-12-04T20:59:22.606Z,7.20
2022-12-04T21:01:51.795Z,7.18
2022-12-04T21:04:20.081Z,6.57
2022-12-04T21:06:48.009Z,8.20
2022-12-04T21:09:18.142Z,7.78
2022-12-04T21:11:47.762Z,9.15
2022-12-04T21:14:18.910Z,8.90
2022-12-04T21:16:47.884Z,7.40
2022-12-04T21:19:17.204Z,7.93
2022-12-04T21:21:45.558Z,7.60
2022-12-04T21:24:14.617Z,8.10
2022-12-04T21:26:42.647Z,8.05
2022-12-04T21:29:11.094Z,8.95
2022-12-04T21:31:40.514Z,8.15
2022-12-04T21:34:11.236Z,7.55
2022-12-04T21:36:39.135Z,7.77
2022-12-04T21:39:07.327Z,7.22
2022-12-04T21:41:35.284Z,7.10
2022-12-04T21:44:04.311Z,8.57
2022-12-04T21:46:32.117Z,8.18
2022-12-04T21:49:01.283Z,8.25
2022-12-04T21:51:55.809Z,8.45
2022-12-04T21:54:16.786Z,8.77
2022-12-04T21:56:44.746Z,8.73
2022-12-04T21:59:12.609Z,8.82
2022-12-04T22:01:41.102Z,9.63
2022-12-04T22:04:10.255Z,9.15
2022-12-04T22:06:38.727Z,10.73
2022-12-04T22:09:08.677Z,8.85
2022-12-04T22:11:36.770Z,9.63
2022-12-04T22:14:04.925Z,9.63
2022-12-04T22:16:36.947Z,9.85
2022-12-04T22:19:07.723Z,9.10
2022-12-04T22:21:37.545Z,9.57
2022-12-04T22:24:06.027Z,9.63
2022-12-04T22:26:33.686Z,9.07
2022-12-04T22:29:03.173Z,10.32
2022-12-04T22:34:01.511Z,8.80
2022-12-04T22:36:31.834Z,10.88
2022-12-04T22:39:10.212Z,9.93
2022-12-04T22:41:39.059Z,9.93
2022-12-04T22:44:06.652Z,9.23
2022-12-04T22:46:34.577Z,10.45
2022-12-04T22:49:02.372Z,10.02
2022-12-04T22:51:30.190Z,8.65
2022-12-04T22:53:58.735Z,9.80
2022-12-04T22:56:29.866Z,9.07
2022-12-04T22:58:58.453Z,8.48
2022-12-04T23:01:28.322Z,8.80
2022-12-04T23:03:56.390Z,8.73
2022-12-04T23:06:25.969Z,10.13
2022-12-04T23:08:55.324Z,9.00
2022-12-04T23:11:24.364Z,9.30
2022-12-04T23:13:56.202Z,9.40
2022-12-04T23:16:25.177Z,10.00
2022-12-04T23:18:53.340Z,9.23
2022-12-04T23:21:22.127Z,9.88
2022-12-04T23:23:52.413Z,9.75
2022-12-04T23:26:21.559Z,9.68
2022-12-04T23:28:49.503Z,8.73
2022-12-04T23:31:19.165Z,10.15
2022-12-04T23:33:46.855Z,8.85
2022-12-04T23:36:15.629Z,9.52
2022-12-04T23:38:44.641Z,10.10
2022-12-04T23:41:14.799Z,10.48
2022-12-04T23:43:43.014Z,10.13
2022-12-04T23:46:12.842Z,10.35
2022-12-04T23:48:43.680Z,10.80
2022-12-04T23:51:13.479Z,10.13
2022-12-04T23:53:41.398Z,11.07
2022-12-04T23:56:12.480Z,8.43
2022-12-04T23:58:42.089Z,7.85
